createdAt,value
2022-09-30T00:01:24.651Z,8.03
2022-09-30T00:03:55.997Z,9.40
2022-09-30T00:06:24.562Z,9.50
2022-09-30T00:08:51.606Z,10.30
2022-09-30T00:11:21.860Z,10.10
2022-09-30T00:13:51.380Z,10.97
2022-09-30T00:16:19.462Z,10.00
2022-09-30T00:18:46.467Z,10.70
2022-09-30T00:21:16.061Z,10.20
2022-09-30T00:23:44.489Z,9.93
2022-09-30T00:26:17.038Z,10.83
2022-09-30T00:28:46.249Z,9.90
2022-09-30T00:31:15.727Z,10.37
2022-09-30T00:33:43.945Z,10.10
2022-09-30T00:36:11.385Z,12.43
2022-09-30T00:38:38.218Z,11.80
2022-09-30T00:41:05.152Z,10.97
2022-09-30T00:43:46.741Z,11.53
2022-09-30T00:46:44.280Z,11.10
2022-09-30T00:49:21.069Z,10.60
2022-09-30T00:51:53.506Z,11.57
2022-09-30T00:54:25.803Z,9.97
2022-09-30T00:56:57.463Z,11.70
2022-09-30T00:59:35.055Z,11.37
2022-09-30T01:02:02.493Z,11.53
2022-09-30T01:04:32.739Z,11.27
2022-09-30T01:07:05.411Z,11.67
2022-09-30T01:09:34.545Z,10.63
2022-09-30T01:12:06.163Z,11.70
2022-09-30T01:14:33.416Z,11.73
2022-09-30T01:17:10.810Z,11.97
2022-09-30T01:20:03.452Z,12.27
2022-09-30T01:22:45.034Z,16.73
2022-09-30T01:25:17.439Z,11.37
2022-09-30T01:28:02.373Z,11.17
2022-09-30T01:31:06.946Z,11.63
2022-09-30T01:33:56.155Z,13.57
2022-09-30T01:36:44.474Z,11.67
2022-09-30T01:39:20.025Z,12.27
2022-09-30T01:42:18.631Z,12.83
2022-09-30T01:45:03.274Z,12.40
2022-09-30T01:47:36.986Z,12.43
2022-09-30T01:50:19.623Z,13.00
2022-09-30T01:52:57.695Z,12.43
2022-09-30T01:55:46.376Z,11.77
2022-09-30T01:58:33.094Z,13.20
2022-09-30T02:01:06.261Z,11.83
2022-09-30T02:03:41.112Z,12.50
2022-09-30T02:06:11.613Z,12.50
2022-09-30T02:08:41.864Z,11.33
2022-09-30T02:11:25.283Z,13.40
2022-09-30T02:14:30.905Z,13.83
2022-09-30T02:17:15.031Z,13.70
2022-09-30T02:19:49.831Z,15.63
2022-09-30T02:22:21.808Z,13.77
2022-09-30T02:24:53.412Z,16.77
2022-09-30T02:27:25.232Z,15.33
2022-09-30T02:29:57.129Z,16.17
2022-09-30T02:32:35.809Z,14.20
2022-09-30T02:35:11.827Z,16.47
2022-09-30T02:37:43.806Z,18.03
2022-09-30T02:40:24.043Z,17.10
2022-09-30T02:42:50.934Z,15.23
2022-09-30T02:45:22.043Z,17.27
2022-09-30T02:47:56.261Z,15.63
2022-09-30T02:50:33.623Z,18.10
2022-09-30T02:53:18.908Z,17.10
2022-09-30T02:56:09.012Z,17.57
2022-09-30T02:58:39.560Z,16.87
2022-09-30T03:01:09.408Z,15.13
2022-09-30T03:03:41.941Z,15.70
2022-09-30T03:06:10.313Z,14.47
2022-09-30T03:08:37.107Z,15.83
2022-09-30T03:11:04.830Z,15.70
2022-09-30T03:13:49.549Z,16.17
2022-09-30T03:16:22.361Z,16.17
2022-09-30T03:19:00.075Z,15.23
2022-09-30T03:22:04.381Z,15.90
2022-09-30T03:24:54.795Z,15.87
2022-09-30T03:27:54.314Z,15.67
2022-09-30T03:30:26.996Z,17.00
2022-09-30T03:33:20.522Z,14.97
2022-09-30T03:35:47.419Z,16.70
2022-09-30T03:38:34.084Z,15.40
2022-09-30T03:41:31.935Z,15.87
2022-09-30T03:44:05.680Z,17.40
2022-09-30T03:46:42.161Z,16.00
2022-09-30T03:49:13.363Z,17.30
2022-09-30T03:51:41.625Z,16.43
2022-09-30T03:54:12.783Z,21.07
2022-09-30T03:56:43.441Z,24.50
2022-09-30T03:59:25.085Z,18.63
2022-09-30T04:01:52.694Z,18.00
2022-09-30T04:04:19.559Z,17.80
2022-09-30T04:06:47.116Z,17.23
2022-09-30T04:09:14.297Z,17.20
2022-09-30T04:11:41.134Z,18.57
2022-09-30T04:14:07.902Z,19.10
2022-09-30T04:16:34.794Z,18.53
2022-09-30T04:19:01.895Z,18.53
2022-09-30T04:21:28.978Z,18.40
2022-09-30T04:23:56.424Z,18.33
2022-09-30T04:26:23.115Z,18.67
2022-09-30T04:28:50.444Z,18.20
2022-09-30T04:31:19.441Z,20.83
2022-09-30T04:33:46.260Z,18.53
2022-09-30T04:36:13.017Z,17.87
2022-09-30T04:38:39.770Z,17.10
2022-09-30T04:41:07.348Z,18.97
2022-09-30T04:43:34.520Z,15.20
2022-09-30T04:46:01.703Z,15.70
2022-09-30T04:48:31.349Z,16.63
2022-09-30T04:51:00.069Z,15.57
2022-09-30T04:53:27.207Z,14.70
2022-09-30T04:56:02.337Z,15.13
2022-09-30T04:58:34.710Z,14.53
2022-09-30T05:01:09.168Z,13.77
2022-09-30T05:03:36.626Z,16.37
2022-09-30T05:06:04.296Z,15.83
2022-09-30T05:08:33.797Z,15.70
2022-09-30T05:11:09.648Z,14.77
2022-09-30T05:13:38.851Z,13.53
2022-09-30T05:16:07.258Z,14.70
2022-09-30T05:18:35.537Z,14.50
2022-09-30T05:21:03.161Z,15.93
2022-09-30T05:23:31.966Z,16.00
2022-09-30T05:26:00.008Z,14.30
2022-09-30T05:28:27.252Z,16.50
2022-09-30T05:31:02.794Z,15.77
2022-09-30T05:33:30.381Z,14.40
2022-09-30T05:36:00.956Z,14.43
2022-09-30T05:38:29.596Z,13.97
2022-09-30T05:41:07.463Z,16.63
2022-09-30T05:43:34.906Z,15.00
2022-09-30T05:46:01.711Z,15.73
2022-09-30T05:48:28.461Z,17.43
2022-09-30T05:50:57.543Z,18.37
2022-09-30T05:53:24.639Z,16.70
2022-09-30T05:55:51.681Z,17.30
2022-09-30T05:58:19.022Z,17.73
2022-09-30T06:00:47.549Z,18.30
2022-09-30T06:03:15.895Z,19.40
2022-09-30T06:05:42.973Z,20.40
2022-09-30T06:08:10.532Z,19.13
2022-09-30T06:10:40.005Z,21.03
2022-09-30T06:13:07.591Z,19.40
2022-09-30T06:15:38.942Z,21.27
2022-09-30T06:18:06.141Z,20.03
2022-09-30T06:20:33.118Z,20.60
2022-09-30T06:23:04.078Z,25.63
2022-09-30T06:25:31.668Z,22.37
2022-09-30T06:27:58.506Z,26.00
2022-09-30T06:30:25.407Z,24.23
2022-09-30T06:32:54.030Z,25.23
2022-09-30T06:35:22.108Z,29.10
2022-09-30T06:37:51.759Z,25.60
2022-09-30T06:40:21.201Z,24.10
2022-09-30T06:42:49.401Z,25.77
2022-09-30T06:45:30.445Z,23.83
2022-09-30T06:48:04.523Z,21.67
2022-09-30T06:50:32.985Z,24.40
2022-09-30T06:53:06.303Z,21.47
2022-09-30T06:55:36.568Z,23.30
2022-09-30T06:58:03.344Z,22.57
2022-09-30T07:00:30.150Z,24.73
2022-09-30T07:02:56.970Z,25.40
2022-09-30T07:05:25.766Z,20.60
2022-09-30T07:07:53.547Z,23.07
2022-09-30T07:10:20.964Z,22.90
2022-09-30T07:12:54.227Z,22.03
2022-09-30T07:15:23.302Z,22.30
2022-09-30T07:17:54.031Z,21.50
2022-09-30T07:20:20.808Z,22.30
2022-09-30T07:22:47.683Z,21.03
2022-09-30T07:25:15.712Z,21.70
2022-09-30T07:27:42.516Z,21.30
2022-09-30T07:30:15.156Z,21.03
2022-09-30T07:32:48.087Z,20.83
2022-09-30T07:35:14.891Z,23.07
2022-09-30T07:37:41.690Z,20.87
2022-09-30T07:40:09.540Z,19.90
2022-09-30T07:42:45.833Z,19.90
2022-09-30T07:45:19.339Z,20.00
2022-09-30T07:47:49.816Z,18.20
2022-09-30T07:50:20.112Z,18.80
2022-09-30T07:52:46.908Z,18.13
2022-09-30T07:55:13.618Z,18.33
2022-09-30T07:57:40.360Z,19.50
2022-09-30T08:00:29.723Z,16.73
2022-09-30T08:02:54.452Z,18.13
2022-09-30T08:05:21.169Z,18.23
2022-09-30T08:07:47.889Z,16.10
2022-09-30T08:10:14.734Z,16.03
2022-09-30T08:12:41.459Z,17.70
2022-09-30T08:15:09.737Z,17.30
2022-09-30T08:17:36.440Z,14.93
2022-09-30T08:20:03.447Z,20.03
2022-09-30T08:22:30.185Z,16.43
2022-09-30T08:24:56.898Z,13.23
2022-09-30T08:27:23.650Z,13.53
2022-09-30T08:29:55.144Z,12.00
2022-09-30T08:32:22.111Z,13.30
2022-09-30T08:34:48.815Z,14.20
2022-09-30T08:37:15.504Z,14.30
2022-09-30T08:39:43.468Z,16.27
2022-09-30T08:42:37.962Z,15.10
2022-09-30T08:45:28.671Z,13.43
2022-09-30T08:48:01.459Z,14.63
2022-09-30T08:50:40.525Z,13.40
2022-09-30T08:53:21.608Z,12.93
2022-09-30T08:55:48.466Z,14.50
2022-09-30T08:58:29.054Z,13.70
2022-09-30T09:01:04.859Z,13.10
2022-09-30T09:03:34.220Z,13.03
2022-09-30T09:06:31.014Z,13.77
2022-09-30T09:09:03.741Z,12.20
2022-09-30T09:12:00.831Z,14.13
2022-09-30T09:14:53.151Z,14.60
2022-09-30T09:17:39.242Z,13.43
2022-09-30T09:20:30.811Z,14.73
2022-09-30T09:22:57.531Z,14.60
2022-09-30T09:25:28.139Z,15.07
2022-09-30T09:28:00.303Z,14.13
2022-09-30T09:30:33.546Z,14.20
2022-09-30T09:33:19.827Z,14.00
2022-09-30T09:36:00.117Z,13.97
2022-09-30T09:39:16.550Z,13.40
2022-09-30T09:42:12.104Z,15.70
2022-09-30T09:44:41.815Z,13.90
2022-09-30T09:47:14.262Z,14.10
2022-09-30T09:49:52.719Z,13.23
2022-09-30T09:52:30.791Z,14.70
2022-09-30T09:54:57.710Z,14.10
2022-09-30T09:57:33.876Z,14.50
2022-09-30T10:00:29.390Z,13.90
2022-09-30T10:03:28.392Z,14.53
2022-09-30T10:06:09.046Z,14.70
2022-09-30T10:08:52.070Z,15.03
2022-09-30T10:11:23.002Z,13.00
2022-09-30T10:13:51.181Z,15.07
2022-09-30T10:16:30.404Z,16.00
2022-09-30T10:18:57.961Z,15.40
2022-09-30T10:21:27.218Z,15.97
2022-09-30T10:23:54.657Z,15.50
2022-09-30T10:26:24.334Z,15.33
2022-09-30T10:28:57.548Z,16.13
2022-09-30T10:31:29.445Z,17.73
2022-09-30T10:34:15.529Z,16.27
2022-09-30T10:36:44.629Z,17.10
2022-09-30T10:39:24.642Z,17.47
2022-09-30T10:42:07.373Z,16.33
2022-09-30T10:44:44.016Z,15.20
2022-09-30T10:47:15.996Z,17.13
2022-09-30T10:49:50.214Z,16.30
2022-09-30T10:52:27.491Z,16.03
2022-09-30T10:54:59.475Z,18.63
2022-09-30T10:57:29.894Z,17.77
2022-09-30T11:00:09.282Z,17.80
2022-09-30T11:03:02.193Z,15.50
2022-09-30T11:05:38.237Z,16.80
2022-09-30T11:08:10.649Z,14.87
2022-09-30T11:11:14.227Z,11.70
2022-09-30T11:14:04.237Z,14.97
2022-09-30T11:16:37.218Z,13.70
2022-09-30T11:19:22.797Z,13.70
2022-09-30T11:21:53.679Z,13.13
2022-09-30T11:24:29.938Z,11.30
2022-09-30T11:27:35.303Z,12.30
2022-09-30T11:30:20.828Z,10.80
2022-09-30T11:33:23.501Z,9.70
2022-09-30T11:36:02.013Z,9.50
2022-09-30T11:38:56.176Z,10.60
2022-09-30T11:41:31.071Z,9.00
2022-09-30T11:44:34.647Z,9.70
2022-09-30T11:47:19.368Z,9.70
2022-09-30T11:49:57.796Z,7.87
2022-09-30T11:53:10.975Z,9.30
2022-09-30T11:56:02.460Z,9.07
2022-09-30T11:59:02.422Z,8.10
2022-09-30T12:01:38.499Z,7.40
2022-09-30T12:04:20.157Z,8.40
2022-09-30T12:06:56.077Z,7.17
2022-09-30T12:09:27.366Z,7.40
2022-09-30T12:12:00.187Z,7.57
2022-09-30T12:14:39.062Z,7.10
2022-09-30T12:17:13.099Z,7.03
2022-09-30T12:19:48.236Z,6.67
2022-09-30T12:22:21.012Z,6.17
2022-09-30T12:24:47.859Z,6.30
2022-09-30T12:27:24.264Z,6.37
2022-09-30T12:30:20.472Z,6.60
2022-09-30T12:33:19.779Z,6.27
2022-09-30T12:36:06.748Z,6.10
2022-09-30T12:38:58.122Z,5.33
2022-09-30T12:42:03.757Z,4.60
2022-09-30T12:44:36.013Z,4.57
2022-09-30T12:47:14.357Z,4.07
2022-09-30T12:49:43.384Z,2.80
2022-09-30T12:52:19.248Z,3.20
2022-09-30T12:55:00.313Z,3.43
2022-09-30T12:57:31.272Z,3.80
2022-09-30T13:00:03.990Z,3.97
2022-09-30T13:02:36.174Z,3.40
2022-09-30T13:05:32.085Z,3.30
2022-09-30T13:08:04.713Z,3.50
2022-09-30T13:10:33.169Z,3.10
2022-09-30T13:13:33.813Z,3.90
2022-09-30T13:16:06.525Z,2.87
2022-09-30T13:18:33.404Z,4.17
2022-09-30T13:21:06.709Z,3.40
2022-09-30T13:23:46.587Z,3.30
2022-09-30T13:26:32.567Z,3.30
2022-09-30T13:29:02.734Z,3.57
2022-09-30T13:31:32.195Z,3.13
2022-09-30T13:34:02.094Z,3.13
2022-09-30T13:36:32.178Z,2.70
2022-09-30T13:39:17.824Z,2.63
2022-09-30T13:41:48.402Z,3.47
2022-09-30T13:44:26.057Z,3.10
2022-09-30T13:46:56.581Z,3.30
2022-09-30T13:49:57.399Z,2.93
2022-09-30T13:52:32.651Z,2.97
2022-09-30T13:55:06.727Z,3.03
2022-09-30T13:58:00.992Z,3.20
2022-09-30T14:00:57.651Z,3.33
2022-09-30T14:03:42.681Z,3.10
2022-09-30T14:06:38.352Z,2.63
2022-09-30T14:09:12.953Z,3.73
2022-09-30T14:12:13.480Z,3.33
2022-09-30T14:14:40.233Z,3.27
2022-09-30T14:17:29.993Z,3.60
2022-09-30T14:20:30.628Z,3.20
2022-09-30T14:22:57.736Z,3.00
2022-09-30T14:25:24.763Z,3.40
2022-09-30T14:28:04.291Z,3.00
2022-09-30T14:30:41.584Z,6.13
2022-09-30T14:33:21.131Z,3.30
2022-09-30T14:35:51.212Z,3.30
2022-09-30T14:38:24.506Z,6.20
2022-09-30T14:40:53.046Z,6.07
2022-09-30T14:43:28.595Z,6.80
2022-09-30T14:48:31.869Z,7.73
2022-09-30T14:51:21.437Z,8.50
2022-09-30T14:54:02.233Z,7.20
2022-09-30T14:56:35.389Z,7.37
2022-09-30T14:59:26.873Z,6.67
2022-09-30T15:02:12.216Z,7.33
2022-09-30T15:04:46.819Z,7.00
2022-09-30T15:07:13.806Z,7.50
2022-09-30T15:09:43.843Z,6.83
2022-09-30T15:12:19.712Z,8.07
2022-09-30T15:14:48.704Z,7.37
2022-09-30T15:17:27.816Z,6.30
2022-09-30T15:19:56.483Z,6.33
2022-09-30T15:22:26.249Z,6.70
2022-09-30T15:24:54.177Z,6.43
2022-09-30T15:27:28.932Z,5.40
2022-09-30T15:29:57.219Z,6.10
2022-09-30T15:32:26.587Z,6.00
2022-09-30T15:34:54.330Z,6.10
2022-09-30T15:37:24.210Z,5.30
2022-09-30T15:40:10.071Z,5.80
2022-09-30T15:42:47.677Z,7.50
2022-09-30T15:45:19.773Z,7.00
2022-09-30T15:47:59.062Z,7.83
2022-09-30T15:50:38.890Z,8.30
2022-09-30T15:53:26.476Z,8.00
2022-09-30T15:55:55.769Z,8.83
2022-09-30T15:58:39.885Z,8.40
2022-09-30T16:01:23.307Z,7.47
2022-09-30T16:04:00.509Z,9.20
2022-09-30T16:06:51.792Z,8.93
2022-09-30T16:09:21.585Z,10.10
2022-09-30T16:12:05.291Z,9.70
2022-09-30T16:14:48.874Z,8.90
2022-09-30T16:17:29.277Z,10.17
2022-09-30T16:20:07.889Z,9.90
2022-09-30T16:22:34.563Z,10.43
2022-09-30T16:25:28.829Z,9.57
2022-09-30T16:28:09.896Z,8.37
2022-09-30T16:30:42.245Z,8.80
2022-09-30T16:33:11.068Z,8.90
2022-09-30T16:35:37.918Z,7.53
2022-09-30T16:38:06.925Z,9.27
2022-09-30T16:40:39.212Z,9.37
2022-09-30T16:43:07.747Z,9.07
2022-09-30T16:45:35.340Z,8.77
2022-09-30T16:48:02.591Z,7.53
2022-09-30T16:50:39.707Z,8.73
2022-09-30T16:53:06.601Z,8.43
2022-09-30T16:55:33.347Z,8.70
2022-09-30T16:58:00.211Z,7.70
2022-09-30T17:00:28.423Z,10.03
2022-09-30T17:02:55.508Z,9.00
2022-09-30T17:05:24.696Z,9.30
2022-09-30T17:07:55.283Z,8.67
2022-09-30T17:10:26.299Z,9.40
2022-09-30T17:12:53.522Z,9.10
2022-09-30T17:15:20.809Z,9.23
2022-09-30T17:17:48.123Z,9.70
2022-09-30T17:20:15.202Z,9.87
2022-09-30T17:22:42.166Z,10.70
2022-09-30T17:25:11.082Z,10.70
2022-09-30T17:27:38.471Z,10.77
2022-09-30T17:30:08.782Z,9.73
2022-09-30T17:32:36.414Z,11.47
2022-09-30T17:35:03.802Z,10.83
2022-09-30T17:37:30.923Z,9.50
2022-09-30T17:39:57.895Z,10.57
2022-09-30T17:42:43.220Z,11.90
2022-09-30T17:45:10.561Z,11.60
2022-09-30T17:47:39.616Z,13.50
2022-09-30T17:50:06.790Z,12.70
2022-09-30T17:52:34.376Z,12.93
2022-09-30T17:55:01.422Z,14.50
2022-09-30T17:57:28.400Z,14.20
2022-09-30T17:59:58.864Z,15.20
2022-09-30T18:02:25.749Z,15.30
2022-09-30T18:04:54.330Z,14.23
2022-09-30T18:07:22.849Z,16.13
2022-09-30T18:09:51.102Z,18.63
2022-09-30T18:12:17.815Z,16.53
2022-09-30T18:14:45.084Z,17.03
2022-09-30T18:17:11.819Z,15.53
2022-09-30T18:19:38.664Z,16.57
2022-09-30T18:22:05.398Z,16.67
2022-09-30T18:24:50.944Z,16.77
2022-09-30T18:27:17.774Z,17.07
2022-09-30T18:29:44.517Z,19.10
2022-09-30T18:32:11.284Z,17.50
2022-09-30T18:34:38.072Z,18.70
2022-09-30T18:37:06.659Z,18.77
2022-09-30T18:39:39.926Z,19.23
2022-09-30T18:42:06.653Z,18.93
2022-09-30T18:44:37.483Z,20.77
2022-09-30T18:47:05.194Z,22.37
2022-09-30T18:49:32.420Z,21.37
2022-09-30T18:51:59.737Z,22.90
2022-09-30T18:54:26.571Z,19.33
2022-09-30T18:56:53.413Z,20.77
2022-09-30T18:59:23.250Z,49.93
2022-09-30T19:01:51.032Z,23.87
2022-09-30T19:04:18.139Z,21.63
2022-09-30T19:06:47.504Z,19.73
2022-09-30T19:09:16.363Z,21.03
2022-09-30T19:11:43.952Z,20.17
2022-09-30T19:14:14.470Z,19.37
2022-09-30T19:16:41.934Z,21.00
2022-09-30T19:19:12.420Z,19.77
2022-09-30T19:21:39.643Z,19.93
2022-09-30T19:24:08.617Z,20.47
2022-09-30T19:26:37.337Z,22.60
2022-09-30T19:29:05.562Z,21.57
2022-09-30T19:31:34.211Z,24.00
2022-09-30T19:34:02.035Z,23.37
2022-09-30T19:36:31.517Z,22.23
2022-09-30T19:39:11.353Z,22.37
2022-09-30T19:41:39.388Z,20.37
2022-09-30T19:44:06.181Z,21.30
2022-09-30T19:46:33.036Z,22.87
2022-09-30T19:48:59.776Z,23.20
2022-09-30T19:51:29.133Z,23.43
2022-09-30T19:54:05.878Z,24.93
2022-09-30T19:56:34.359Z,22.77
2022-09-30T19:59:01.180Z,21.90
2022-09-30T20:01:29.379Z,25.47
2022-09-30T20:03:58.131Z,23.50
2022-09-30T20:06:27.528Z,22.67
2022-09-30T20:09:00.014Z,22.60
2022-09-30T20:11:29.756Z,23.03
2022-09-30T20:14:16.036Z,22.90
2022-09-30T20:16:46.788Z,20.57
2022-09-30T20:19:13.660Z,21.70
2022-09-30T20:21:43.801Z,20.53
2022-09-30T20:24:12.442Z,22.97
2022-09-30T20:26:40.227Z,23.87
2022-09-30T20:29:09.845Z,24.17
2022-09-30T20:31:38.571Z,21.50
2022-09-30T20:34:05.430Z,22.30
2022-09-30T20:36:32.855Z,21.57
2022-09-30T20:39:02.625Z,22.60
2022-09-30T20:41:35.704Z,32.37
2022-09-30T20:44:12.025Z,28.97
2022-09-30T20:46:41.717Z,21.20
2022-09-30T20:49:09.026Z,22.80
2022-09-30T20:51:36.143Z,22.57
2022-09-30T20:54:03.151Z,24.00
2022-09-30T20:56:49.637Z,23.63
2022-09-30T20:59:17.409Z,23.27
2022-09-30T21:01:44.376Z,24.33
2022-09-30T21:04:11.256Z,24.03
2022-09-30T21:06:37.952Z,22.27
2022-09-30T21:09:05.472Z,22.10
2022-09-30T21:11:32.980Z,23.03
2022-09-30T21:14:00.421Z,22.60
2022-09-30T21:16:27.261Z,22.00
2022-09-30T21:18:54.243Z,22.40
2022-09-30T21:21:24.693Z,20.70
2022-09-30T21:23:55.440Z,21.90
2022-09-30T21:26:22.241Z,21.17
2022-09-30T21:28:50.732Z,21.47
2022-09-30T21:31:20.780Z,19.57
2022-09-30T21:33:53.292Z,34.73
2022-09-30T21:36:21.392Z,23.03
2022-09-30T21:38:49.704Z,21.67
2022-09-30T21:41:17.378Z,19.97
2022-09-30T21:43:44.359Z,20.60
2022-09-30T21:46:13.577Z,21.37
2022-09-30T21:48:41.055Z,20.60
2022-09-30T21:51:09.579Z,25.60
2022-09-30T21:53:36.404Z,20.10
2022-09-30T21:56:04.384Z,20.07
2022-09-30T21:58:32.668Z,19.40
2022-09-30T22:01:02.056Z,19.40
2022-09-30T22:03:31.585Z,20.57
2022-09-30T22:06:00.531Z,20.80
2022-09-30T22:08:32.854Z,18.90
2022-09-30T22:10:59.563Z,18.53
2022-09-30T22:13:26.290Z,19.00
2022-09-30T22:16:02.232Z,17.33
2022-09-30T22:18:31.788Z,18.43
2022-09-30T22:21:03.966Z,17.47
2022-09-30T22:23:30.696Z,16.40
2022-09-30T22:25:58.393Z,15.97
2022-09-30T22:28:25.262Z,17.77
2022-09-30T22:30:52.064Z,16.50
2022-09-30T22:33:37.424Z,16.43
2022-09-30T22:36:22.950Z,16.83
2022-09-30T22:38:49.700Z,16.90
2022-09-30T22:41:17.653Z,17.50
2022-09-30T22:43:44.425Z,16.90
2022-09-30T22:46:11.222Z,16.60
2022-09-30T22:48:38.409Z,16.67
2022-09-30T22:51:05.303Z,16.17
2022-09-30T22:53:33.816Z,16.87
2022-09-30T22:56:03.896Z,15.93
2022-09-30T22:58:30.668Z,15.70
2022-09-30T23:00:58.908Z,15.87
2022-09-30T23:03:26.169Z,17.70
2022-09-30T23:05:59.184Z,17.17
2022-09-30T23:08:30.900Z,16.10
2022-09-30T23:10:57.941Z,15.70
2022-09-30T23:13:24.662Z,16.93
2022-09-30T23:15:58.218Z,17.90
2022-09-30T23:18:28.528Z,16.80
2022-09-30T23:21:11.077Z,16.43
2022-09-30T23:23:39.244Z,17.00
2022-09-30T23:26:10.119Z,16.50
2022-09-30T23:28:37.116Z,17.90
2022-09-30T23:31:09.867Z,17.33
2022-09-30T23:33:47.053Z,17.27
2022-09-30T23:36:16.428Z,17.50
2022-09-30T23:38:43.407Z,14.13
2022-09-30T23:41:10.531Z,15.77
2022-09-30T23:43:37.590Z,17.07
2022-09-30T23:46:08.661Z,16.80
2022-09-30T23:48:39.265Z,17.40
2022-09-30T23:51:07.003Z,17.50
2022-09-30T23:53:35.187Z,15.77
2022-09-30T23:56:04.890Z,15.50
2022-09-30T23:58:34.414Z,17.17
